Terminal Aerodrome Forecast
Issued by NWS Melbourne, FL

Current Version | Previous Version | Text Only | Print | Product List | Glossary On
Versions: 1 2 3 4 5 6 7 8 9 10 11 12 13 14 15
000
FTUS42 KMLB 311700
TAFDAB
TAF
KDAB 311724Z 3118/0118 10009KT P6SM VCTS FEW020 SCT040CB SCT150
     FM010000 13003KT P6SM FEW050 SCT250
     FM011400 20004KT P6SM FEW015 SCT060 SCT250=

USA.gov is the U.S. government's official web portal to all federal, state and local government web resources and services.